Saint-Ambroise, Canada
Current Conditions -  °F | °C
As of 1:00 AM on Tuesday 27 Jan 2015 (Local Time) from CYBG Reporting Station
Broken Clouds Broken Clouds  
Wind Chill: -17°   Ceiling: 24000
Heat Index: -17°   Visibility: 25mi
Dew Point: -26°   Wind: 0mph
Humidity: 64%   Direction: NA
Pressure: 30.38"   Gusts: NA
Location:  48.55°N, 71.32°W
Report Text: CYBG 270600Z 00000KT 25SM BKN240 M27/M32 A3038 RMK CI2 SLP310
Loading
Personal Weather Stations






























Interactive Weather Map New forecast layout! Learn more

10-Day Weather Forecast

Advertisements
Track Severe Weather on mobile